Time;durP1;ratioP1;P1;durP2;ratioP2;P2;SDS_P1;SDS_P2;PMS_P1;PMS_P2;Temp;Humidity;BMP_temperature;BMP_pressure;BME280_temperature;BME280_humidity;BME280_pressure;Samples;Min_cycle;Max_cycle;Signal;HPM_P1;HPM_P2
2021/11/08 00:01:16;;;;;;;143.23;129.38;;;8.70;99.90;;;;;;5036494;28;20718;-84
2021/11/08 00:03:46;;;;;;;122.60;110.18;;;8.70;99.90;;;;;;5037245;28;20145;-84
2021/11/08 00:06:13;;;;;;;108.28;95.22;;;8.60;99.90;;;;;;5036969;28;20228;-83
2021/11/08 00:08:40;;;;;;;123.13;102.82;;;8.60;99.90;;;;;;5036826;28;20254;-84
2021/11/08 00:11:06;;;;;;;115.47;95.95;;;8.60;99.90;;;;;;5034878;28;20223;-84
2021/11/08 00:13:33;;;;;;;127.43;114.10;;;8.60;99.90;;;;;;5034541;28;20663;-84
2021/11/08 00:20:54;;;;;;;198.20;182.47;;;8.60;99.90;;;;;;5035762;28;20169;-84
2021/11/08 00:23:20;;;;;;;226.30;209.68;;;8.60;99.90;;;;;;5037022;28;20414;-84
2021/11/08 00:25:47;;;;;;;182.15;166.63;;;8.60;99.90;;;;;;5036526;28;20624;-84
2021/11/08 00:28:16;;;;;;;153.02;139.15;;;8.60;99.90;;;;;;5036460;28;20595;-84
2021/11/08 00:30:43;;;;;;;206.25;189.70;;;8.70;99.90;;;;;;5037008;28;20165;-84
2021/11/08 00:33:15;;;;;;;194.93;179.35;;;8.70;99.90;;;;;;5034793;28;20177;-84
2021/11/08 00:35:45;;;;;;;195.05;178.90;;;8.70;99.90;;;;;;5035126;28;20193;-84
2021/11/08 00:38:12;;;;;;;179.70;164.50;;;8.70;99.90;;;;;;5037155;28;20189;-84
2021/11/08 00:40:38;;;;;;;147.73;134.10;;;8.70;99.90;;;;;;5036517;28;20168;-84
2021/11/08 00:43:05;;;;;;;153.38;138.80;;;8.70;99.90;;;;;;5035576;28;20199;-84
2021/11/08 00:45:31;;;;;;;147.52;133.40;;;8.80;99.90;;;;;;5105323;22;20247;-85
2021/11/08 00:47:58;;;;;;;144.00;130.48;;;8.80;99.90;;;;;;5036742;28;20165;-85
2021/11/08 00:50:27;;;;;;;121.20;107.05;;;8.80;99.90;;;;;;5035626;28;20165;-85
2021/11/08 00:52:54;;;;;;;133.85;119.70;;;8.80;99.90;;;;;;5037365;28;20621;-86
2021/11/08 00:55:22;;;;;;;117.25;104.63;;;8.90;99.90;;;;;;5036619;28;20193;-86
2021/11/08 00:57:50;;;;;;;121.07;107.97;;;8.80;99.90;;;;;;5037013;28;20688;-85
2021/11/08 01:00:26;;;;;;;102.03;82.35;;;8.90;99.90;;;;;;5037501;28;20184;-86
2021/11/08 01:02:53;;;;;;;100.70;81.53;;;8.90;99.90;;;;;;5038058;28;20179;-86
2021/11/08 01:05:20;;;;;;;117.68;105.00;;;8.90;99.90;;;;;;5038175;28;20173;-86
2021/11/08 01:07:46;;;;;;;101.10;71.53;;;8.80;99.90;;;;;;5037503;28;20200;-86
2021/11/08 01:10:17;;;;;;;97.25;72.80;;;8.80;99.90;;;;;;5038583;28;20232;-87
2021/11/08 01:12:43;;;;;;;100.90;54.58;;;8.80;99.90;;;;;;5039507;28;20533;-86
2021/11/08 01:15:10;;;;;;;91.70;54.38;;;8.90;99.90;;;;;;5042163;28;20248;-87
2021/11/08 01:17:36;;;;;;;96.75;61.50;;;8.90;99.90;;;;;;5042834;28;20176;-86
2021/11/08 01:20:03;;;;;;;99.95;53.75;;;8.80;99.90;;;;;;5041999;28;20177;-87
2021/11/08 01:22:35;;;;;;;96.22;67.50;;;8.70;99.90;;;;;;5041624;28;20690;-86
2021/11/08 01:25:03;;;;;;;109.05;87.50;;;8.60;99.90;;;;;;5041675;28;20605;-86
2021/11/08 01:27:37;;;;;;;94.03;58.60;;;8.50;99.90;;;;;;5040082;28;20177;-86
2021/11/08 01:30:09;;;;;;;102.25;62.97;;;8.50;99.90;;;;;;5041759;28;20181;-86
2021/11/08 01:32:35;;;;;;;94.70;78.45;;;8.50;99.90;;;;;;5023471;28;20189;-86
2021/11/08 01:35:03;;;;;;;108.78;82.00;;;8.40;99.90;;;;;;5040989;28;20189;-86
2021/11/08 01:37:29;;;;;;;102.93;90.55;;;8.30;99.90;;;;;;5040859;28;20236;-86
2021/11/08 01:39:55;;;;;;;99.45;74.13;;;8.20;99.90;;;;;;5041299;28;20189;-86
2021/11/08 01:42:21;;;;;;;96.70;72.20;;;8.10;99.90;;;;;;5040461;28;20168;-86
2021/11/08 01:44:47;;;;;;;96.10;69.77;;;8.00;99.90;;;;;;5039889;28;20651;-86
2021/11/08 01:47:12;;;;;;;111.17;87.10;;;8.00;99.90;;;;;;5039097;28;20426;-85
2021/11/08 01:49:40;;;;;;;107.37;94.93;;;7.90;99.90;;;;;;5037903;28;20967;-85
2021/11/08 01:52:08;;;;;;;108.78;81.45;;;7.80;99.90;;;;;;5039664;28;20161;-85
2021/11/08 01:54:35;;;;;;;107.15;83.15;;;7.80;99.90;;;;;;5039882;28;20189;-85
2021/11/08 01:57:01;;;;;;;100.68;73.70;;;7.70;99.90;;;;;;5038540;28;20197;-84
2021/11/08 01:59:32;;;;;;;98.38;85.38;;;7.60;99.90;;;;;;5040040;28;20624;-85
2021/11/08 02:01:59;;;;;;;100.78;83.78;;;7.70;99.90;;;;;;5038836;28;20168;-85
2021/11/08 02:04:26;;;;;;;170.80;156.52;;;7.60;99.90;;;;;;5038846;28;20223;-85
2021/11/08 02:06:52;;;;;;;223.93;207.85;;;7.70;99.90;;;;;;5038074;28;20173;-86
2021/11/08 02:09:19;;;;;;;213.52;198.10;;;7.70;99.90;;;;;;5037145;28;20200;-84
2021/11/08 02:11:49;;;;;;;243.90;226.82;;;7.80;99.90;;;;;;5037999;28;20165;-85
2021/11/08 02:14:15;;;;;;;293.90;275.52;;;7.80;99.90;;;;;;5038252;28;20647;-86
2021/11/08 02:16:41;;;;;;;322.13;302.60;;;7.80;99.90;;;;;;5038510;28;20196;-84
2021/11/08 02:19:07;;;;;;;296.98;277.85;;;7.80;99.90;;;;;;5037040;28;20818;-85
2021/11/08 02:21:34;;;;;;;300.00;281.73;;;7.90;99.90;;;;;;5037989;28;20169;-84
2021/11/08 02:24:03;;;;;;;274.33;255.98;;;7.90;99.90;;;;;;5035851;28;20165;-85
2021/11/08 02:26:29;;;;;;;245.05;228.77;;;8.00;99.90;;;;;;5036947;28;20173;-86
2021/11/08 02:28:55;;;;;;;271.65;254.85;;;8.00;99.90;;;;;;5037651;28;20189;-85
2021/11/08 02:31:23;;;;;;;287.60;269.85;;;8.10;99.90;;;;;;5039482;28;20637;-86
2021/11/08 02:33:54;;;;;;;257.08;239.82;;;8.10;99.90;;;;;;5038410;28;20177;-86
2021/11/08 02:36:21;;;;;;;243.05;225.88;;;8.10;99.90;;;;;;5039882;28;20149;-86
2021/11/08 02:38:51;;;;;;;285.75;267.42;;;8.20;99.90;;;;;;5039828;28;20193;-86
2021/11/08 02:41:18;;;;;;;294.27;275.55;;;8.20;99.90;;;;;;5036892;28;20165;-85
2021/11/08 02:43:45;;;;;;;291.40;273.33;;;8.20;99.90;;;;;;5038058;28;20164;-84
2021/11/08 02:46:14;;;;;;;270.83;252.73;;;8.30;99.90;;;;;;5037726;28;20521;-84
2021/11/08 02:48:42;;;;;;;269.83;252.98;;;8.30;99.90;;;;;;5036382;28;20184;-84
2021/11/08 02:51:15;;;;;;;304.15;285.75;;;8.40;99.90;;;;;;5038478;28;20636;-84
2021/11/08 02:53:44;;;;;;;311.45;292.10;;;8.30;99.90;;;;;;5036793;28;20240;-84
2021/11/08 02:56:10;;;;;;;278.60;260.30;;;8.40;99.90;;;;;;5036448;28;20162;-84
2021/11/08 02:58:39;;;;;;;282.35;264.20;;;8.40;99.90;;;;;;5034297;28;20268;-84
2021/11/08 03:01:10;;;;;;;247.10;230.65;;;8.40;99.90;;;;;;5036272;28;20168;-85
2021/11/08 03:03:41;;;;;;;247.88;231.55;;;8.40;99.90;;;;;;5036476;28;20628;-85
2021/11/08 03:08:43;;;;;;;263.33;245.80;;;8.40;99.90;;;;;;5037802;28;20181;-86
2021/11/08 03:11:10;;;;;;;260.52;243.20;;;8.40;99.90;;;;;;5037134;28;20169;-85
2021/11/08 03:13:38;;;;;;;261.25;243.15;;;8.40;99.90;;;;;;5037406;28;20173;-86
2021/11/08 03:18:59;;;;;;;290.33;271.80;;;8.40;99.90;;;;;;5020637;28;20197;-84
2021/11/08 03:21:26;;;;;;;279.77;261.40;;;8.40;99.90;;;;;;5037705;28;20193;-85
2021/11/08 03:23:54;;;;;;;245.15;227.98;;;8.50;99.90;;;;;;5037737;28;20172;-86
2021/11/08 03:28:51;;;;;;;237.50;220.30;;;8.50;99.90;;;;;;5037738;28;20181;-85
2021/11/08 03:31:17;;;;;;;261.15;242.93;;;8.50;99.90;;;;;;5036017;28;20169;-86
2021/11/08 03:33:45;;;;;;;255.82;238.27;;;8.50;99.90;;;;;;5037204;28;20161;-85
2021/11/08 03:36:12;;;;;;;228.63;211.65;;;8.50;99.90;;;;;;5035628;28;20190;-85
2021/11/08 03:38:39;;;;;;;270.30;252.27;;;8.50;99.90;;;;;;5036468;28;20189;-84
2021/11/08 03:41:08;;;;;;;288.75;269.75;;;8.60;99.90;;;;;;5035163;28;20165;-85
2021/11/08 03:43:35;;;;;;;206.68;191.23;;;8.60;99.90;;;;;;5034481;28;20162;-85
2021/11/08 03:46:02;;;;;;;238.85;221.73;;;8.60;99.90;;;;;;5034159;28;20185;-85
2021/11/08 03:48:28;;;;;;;221.43;203.82;;;8.60;99.90;;;;;;5017892;28;20193;-85
2021/11/08 03:50:54;;;;;;;244.88;226.95;;;8.60;99.90;;;;;;5036004;28;20223;-85
2021/11/08 03:53:21;;;;;;;241.05;224.45;;;8.60;99.90;;;;;;5035604;28;20227;-84
2021/11/08 03:55:52;;;;;;;258.77;240.60;;;8.60;99.90;;;;;;5034750;28;20196;-85
2021/11/08 03:58:20;;;;;;;225.10;208.68;;;8.50;99.90;;;;;;5036332;28;20177;-85
2021/11/08 04:00:47;;;;;;;218.45;201.50;;;8.60;99.90;;;;;;5035248;28;20663;-85
2021/11/08 04:03:13;;;;;;;208.95;192.60;;;8.60;99.90;;;;;;5035181;28;20529;-84
2021/11/08 04:05:41;;;;;;;255.88;238.73;;;8.70;99.90;;;;;;5036631;28;20196;-85
2021/11/08 04:08:11;;;;;;;252.90;235.13;;;8.60;99.90;;;;;;5034379;28;20220;-85
2021/11/08 04:10:38;;;;;;;203.52;187.32;;;8.70;99.90;;;;;;5035492;28;20712;-85
2021/11/08 04:13:05;;;;;;;205.77;189.35;;;8.70;99.90;;;;;;5035799;28;20173;-87
2021/11/08 04:15:38;;;;;;;225.50;209.43;;;8.70;99.90;;;;;;5037076;28;20685;-86
2021/11/08 04:18:16;;;;;;;209.60;193.65;;;8.60;99.90;;;;;;5037036;28;20193;-85
2021/11/08 04:20:45;;;;;;;209.85;193.45;;;8.60;99.90;;;;;;5037338;28;20537;-85
2021/11/08 04:23:16;;;;;;;235.73;218.23;;;8.70;99.90;;;;;;5037235;28;20218;-85
2021/11/08 04:25:42;;;;;;;213.23;196.23;;;8.70;99.90;;;;;;5039099;28;20164;-84
2021/11/08 04:28:09;;;;;;;243.48;226.07;;;8.70;99.90;;;;;;5037851;28;20231;-86
2021/11/08 04:30:42;;;;;;;203.52;187.38;;;8.70;99.90;;;;;;5036826;28;20175;-86
2021/11/08 04:33:18;;;;;;;262.63;244.88;;;8.70;99.90;;;;;;5036944;28;20188;-86
2021/11/08 04:38:40;;;;;;;232.43;215.55;;;8.70;99.90;;;;;;5037560;28;20181;-86
2021/11/08 04:44:00;;;;;;;259.02;241.50;;;8.60;99.90;;;;;;5038424;28;20208;-86
2021/11/08 04:49:08;;;;;;;292.07;272.83;;;8.50;99.90;;;;;;5037579;28;20537;-85
2021/11/08 04:51:53;;;;;;;243.95;226.50;;;8.60;99.90;;;;;;5037806;28;20380;-86
2021/11/08 05:21:35;;;;;;;242.15;225.10;;;8.60;99.90;;;;;;5037918;28;20192;-86
2021/11/08 05:32:10;;;;;;;249.45;231.65;;;8.70;99.90;;;;;;5037555;28;20529;-87
2021/11/08 05:34:47;;;;;;;218.30;201.88;;;8.70;99.90;;;;;;5035427;28;20201;-87
2021/11/08 05:37:14;;;;;;;237.57;219.57;;;8.70;99.90;;;;;;5035988;28;20164;-86
2021/11/08 05:39:52;;;;;;;282.92;263.80;;;8.70;99.90;;;;;;5036244;28;20185;-87
2021/11/08 05:42:19;;;;;;;258.75;241.38;;;8.70;99.90;;;;;;5036609;28;20184;-86
2021/11/08 05:44:49;;;;;;;295.73;275.90;;;8.60;99.90;;;;;;5037312;28;20208;-87
2021/11/08 05:47:15;;;;;;;260.23;241.77;;;8.60;99.90;;;;;;5036764;28;20173;-86
2021/11/08 05:49:45;;;;;;;260.83;242.40;;;8.70;99.90;;;;;;5036893;28;20243;-87
2021/11/08 05:52:14;;;;;;;289.13;270.33;;;8.60;99.90;;;;;;5036191;28;20423;-86
2021/11/08 05:54:44;;;;;;;277.77;259.88;;;8.60;99.90;;;;;;5036179;28;20197;-86
2021/11/08 06:49:12;;;;;;;251.80;233.65;;;8.70;99.90;;;;;;5047813;28;20795;-87
2021/11/08 06:51:39;;;;;;;248.23;230.73;;;8.70;99.90;;;;;;5047968;28;20160;-88
2021/11/08 06:54:05;;;;;;;291.23;272.08;;;8.70;99.90;;;;;;5047881;28;20165;-87
2021/11/08 06:56:43;;;;;;;256.23;238.03;;;8.70;99.90;;;;;;5047434;28;20176;-85
2021/11/08 06:59:10;;;;;;;298.48;279.33;;;8.70;99.90;;;;;;5044988;28;20455;-86
2021/11/08 07:01:36;;;;;;;251.18;233.93;;;8.70;99.90;;;;;;5044487;28;20644;-88
2021/11/08 07:04:02;;;;;;;248.23;230.60;;;8.70;99.90;;;;;;5045949;28;20166;-87
2021/11/08 07:06:28;;;;;;;270.70;251.60;;;8.70;99.90;;;;;;5045659;28;20165;-87
2021/11/08 07:08:54;;;;;;;215.13;198.53;;;8.70;99.90;;;;;;5042341;28;20911;-87
2021/11/08 07:11:20;;;;;;;210.27;193.40;;;8.70;99.90;;;;;;5044808;28;20173;-87
2021/11/08 07:13:45;;;;;;;186.20;170.70;;;8.70;99.90;;;;;;5043376;28;20233;-87
2021/11/08 07:16:12;;;;;;;250.20;231.77;;;8.70;99.90;;;;;;5044604;28;20189;-87
2021/11/08 07:18:46;;;;;;;234.20;217.00;;;8.70;99.90;;;;;;5043802;28;20180;-87
2021/11/08 07:21:12;;;;;;;204.38;188.40;;;8.70;99.90;;;;;;5044471;28;20161;-87
2021/11/08 07:23:37;;;;;;;191.53;176.23;;;8.70;99.90;;;;;;5044156;28;20191;-87
2021/11/08 07:26:03;;;;;;;211.03;194.47;;;8.70;99.90;;;;;;5046208;28;20169;-87
2021/11/08 07:28:29;;;;;;;182.98;168.10;;;8.70;99.90;;;;;;5045584;28;20222;-87
2021/11/08 07:30:55;;;;;;;180.30;165.90;;;8.80;99.90;;;;;;5043700;28;20264;-87
2021/11/08 07:33:21;;;;;;;167.40;153.23;;;8.80;99.90;;;;;;5043079;28;20169;-86
2021/11/08 07:35:47;;;;;;;144.97;131.53;;;8.90;99.90;;;;;;5044997;28;20220;-86
2021/11/08 07:38:16;;;;;;;193.80;177.95;;;8.80;99.90;;;;;;5044500;28;20420;-86
2021/11/08 07:40:42;;;;;;;162.35;147.35;;;8.90;99.90;;;;;;5044983;28;20157;-87
2021/11/08 07:43:10;;;;;;;189.73;174.87;;;8.90;99.90;;;;;;5043758;28;20256;-87
2021/11/08 07:45:45;;;;;;;217.50;201.27;;;8.90;99.90;;;;;;5041565;28;20242;-87
2021/11/08 07:48:43;;;;;;;197.88;181.15;;;8.90;99.90;;;;;;5042063;28;20227;-86
2021/11/08 07:51:15;;;;;;;124.30;110.97;;;8.90;99.90;;;;;;5037559;28;20246;-86
2021/11/08 07:53:44;;;;;;;117.80;103.28;;;9.00;99.90;;;;;;5041166;28;20648;-87
2021/11/08 07:56:16;;;;;;;123.82;111.35;;;8.90;99.90;;;;;;5043301;28;20253;-87
2021/11/08 07:58:43;;;;;;;113.43;98.05;;;8.90;99.90;;;;;;5042736;28;20249;-87
2021/11/08 08:01:09;;;;;;;120.72;105.60;;;9.10;99.90;;;;;;5043142;28;20168;-86
2021/11/08 08:03:36;;;;;;;120.60;108.22;;;9.00;99.90;;;;;;5044135;28;20165;-87
2021/11/08 08:06:03;;;;;;;140.98;127.20;;;9.00;99.90;;;;;;5043443;28;20180;-85
2021/11/08 08:08:30;;;;;;;118.90;106.40;;;9.00;99.90;;;;;;5044096;28;20189;-84
2021/11/08 08:10:59;;;;;;;142.95;129.18;;;9.00;99.90;;;;;;5044828;28;20244;-85
2021/11/08 08:13:26;;;;;;;148.82;134.75;;;9.00;99.90;;;;;;5044020;28;20173;-87
2021/11/08 08:15:58;;;;;;;169.48;153.80;;;9.00;99.90;;;;;;5042650;28;20204;-87
2021/11/08 08:18:29;;;;;;;137.10;123.82;;;9.00;99.90;;;;;;5041905;28;20243;-87
2021/11/08 08:20:55;;;;;;;108.07;90.95;;;9.10;99.90;;;;;;5041140;28;20162;-87
2021/11/08 08:23:21;;;;;;;106.55;73.97;;;9.20;99.90;;;;;;5041833;28;20162;-87
2021/11/08 08:25:47;;;;;;;122.37;76.93;;;9.20;99.90;;;;;;5041973;28;20558;-87
2021/11/08 08:28:12;;;;;;;104.38;82.25;;;9.30;99.90;;;;;;5042689;28;20185;-87
2021/11/08 08:30:38;;;;;;;111.23;98.93;;;9.30;99.90;;;;;;5042640;28;20187;-85
2021/11/08 08:33:04;;;;;;;137.07;123.50;;;9.40;99.90;;;;;;5042653;28;20170;-85
2021/11/08 08:35:36;;;;;;;131.33;117.73;;;9.40;99.90;;;;;;5042822;28;20270;-85
2021/11/08 08:38:02;;;;;;;135.70;122.80;;;9.50;99.90;;;;;;5041011;28;20550;-85
2021/11/08 08:40:28;;;;;;;143.05;129.77;;;9.60;99.90;;;;;;5042591;28;20166;-85
2021/11/08 08:42:54;;;;;;;137.73;124.50;;;9.60;99.90;;;;;;5041326;28;20158;-85
2021/11/08 08:45:19;;;;;;;143.03;129.87;;;9.50;99.90;;;;;;5040883;28;20223;-85
2021/11/08 08:47:45;;;;;;;139.83;126.33;;;9.50;99.90;;;;;;5041460;28;20161;-85
2021/11/08 08:50:11;;;;;;;150.33;136.07;;;9.50;99.90;;;;;;5041931;28;20169;-85
2021/11/08 08:52:37;;;;;;;147.77;134.77;;;9.60;99.90;;;;;;5041923;28;20161;-85
2021/11/08 08:55:04;;;;;;;165.95;152.02;;;9.60;99.90;;;;;;5040927;28;20846;-87
2021/11/08 08:57:30;;;;;;;157.85;143.80;;;9.60;99.90;;;;;;5039950;28;20169;-87
2021/11/08 08:59:55;;;;;;;144.50;131.33;;;9.60;99.90;;;;;;5040906;28;20239;-87
2021/11/08 09:02:21;;;;;;;136.00;122.67;;;9.70;99.90;;;;;;5041929;28;20255;-87
2021/11/08 09:04:48;;;;;;;155.63;142.50;;;9.70;99.90;;;;;;5041549;28;20173;-87
2021/11/08 09:07:15;;;;;;;148.23;134.70;;;9.80;99.90;;;;;;5042602;28;20436;-87
2021/11/08 09:09:42;;;;;;;139.75;126.68;;;9.90;99.90;;;;;;5040028;28;20190;-87
2021/11/08 09:12:08;;;;;;;162.25;148.65;;;10.00;99.90;;;;;;5040599;28;20179;-87
2021/11/08 09:14:35;;;;;;;111.13;98.55;;;10.00;99.90;;;;;;5041835;28;20199;-87
2021/11/08 09:17:04;;;;;;;110.32;83.50;;;10.10;99.90;;;;;;5041715;28;20184;-87
2021/11/08 09:20:19;;;;;;;99.53;64.00;;;10.10;99.90;;;;;;5041379;28;20224;-87
2021/11/08 09:22:50;;;;;;;98.95;50.90;;;10.20;99.90;;;;;;5021878;28;20190;-87
2021/11/08 09:25:19;;;;;;;90.60;53.38;;;10.20;99.90;;;;;;5042049;28;20173;-87
2021/11/08 09:27:49;;;;;;;94.05;46.42;;;10.30;99.90;;;;;;5041169;28;20661;-88
2021/11/08 09:30:19;;;;;;;84.85;32.40;;;10.40;99.90;;;;;;5040601;28;20233;-86
2021/11/08 09:32:46;;;;;;;86.10;28.85;;;10.50;99.90;;;;;;5041230;28;20176;-87
2021/11/08 09:35:12;;;;;;;93.10;34.53;;;10.50;99.90;;;;;;5045638;28;20611;-87
2021/11/08 09:37:43;;;;;;;91.47;28.88;;;10.60;99.90;;;;;;5047437;28;20240;-87
2021/11/08 09:40:13;;;;;;;85.43;28.92;;;10.60;99.90;;;;;;5044081;28;20260;-87
2021/11/08 09:42:39;;;;;;;84.20;25.80;;;10.70;99.90;;;;;;5042570;28;20192;-87
2021/11/08 09:45:06;;;;;;;92.88;35.30;;;10.60;99.90;;;;;;5043257;28;20207;-87
2021/11/08 09:47:33;;;;;;;83.70;28.15;;;10.60;99.90;;;;;;5043621;28;20232;-85
2021/11/08 09:50:03;;;;;;;93.50;29.92;;;10.60;99.90;;;;;;5044528;28;20718;-85
2021/11/08 09:52:39;;;;;;;89.63;30.00;;;10.60;99.90;;;;;;5045372;28;20169;-85
2021/11/08 09:55:08;;;;;;;90.18;30.88;;;10.60;99.90;;;;;;5043819;28;20185;-85
2021/11/08 09:57:34;;;;;;;91.90;27.15;;;10.70;99.90;;;;;;5045195;28;20161;-85
2021/11/08 10:02:33;;;;;;;84.53;27.13;;;10.90;99.90;;;;;;5014738;28;20198;-87
2021/11/08 10:04:59;;;;;;;83.07;32.15;;;10.80;99.90;;;;;;5014584;28;20229;-87
2021/11/08 10:07:28;;;;;;;87.90;34.47;;;10.90;99.90;;;;;;5016267;28;20162;-87
2021/11/08 10:09:56;;;;;;;87.53;36.03;;;11.00;99.90;;;;;;5016689;28;20222;-87
2021/11/08 10:12:22;;;;;;;88.50;43.80;;;11.00;99.90;;;;;;5015019;28;20198;-86
2021/11/08 10:14:47;;;;;;;94.20;49.10;;;11.00;99.90;;;;;;5014821;28;20232;-87
2021/11/08 10:17:14;;;;;;;93.10;47.17;;;11.00;99.90;;;;;;5016731;28;20201;-87
2021/11/08 10:19:40;;;;;;;86.90;43.60;;;11.20;99.90;;;;;;5016091;28;20193;-87
2021/11/08 10:22:09;;;;;;;88.73;43.47;;;11.30;99.90;;;;;;5023665;28;20169;-87
2021/11/08 10:24:38;;;;;;;93.65;47.28;;;11.30;99.90;;;;;;5023391;28;20173;-87
2021/11/08 10:27:07;;;;;;;94.50;48.47;;;11.40;99.90;;;;;;5021301;28;20162;-87
2021/11/08 10:29:34;;;;;;;103.70;50.50;;;11.50;99.90;;;;;;5022110;28;20193;-87
2021/11/08 10:32:05;;;;;;;86.05;41.55;;;11.50;99.90;;;;;;5022737;28;20193;-85
2021/11/08 10:34:31;;;;;;;89.88;35.08;;;11.60;99.90;;;;;;5024003;28;20610;-85
2021/11/08 10:37:01;;;;;;;89.97;31.30;;;11.60;99.90;;;;;;5024633;28;20173;-85
2021/11/08 10:39:28;;;;;;;86.00;29.02;;;11.70;99.90;;;;;;5022921;28;20182;-85
2021/11/08 10:41:55;;;;;;;84.15;24.63;;;11.70;99.90;;;;;;5025658;28;20162;-85
2021/11/08 10:44:25;;;;;;;87.63;29.58;;;11.70;99.90;;;;;;5024717;28;20170;-85
2021/11/08 10:47:02;;;;;;;87.03;28.42;;;11.80;99.90;;;;;;5023375;28;20165;-85
2021/11/08 10:49:34;;;;;;;82.20;24.08;;;11.80;99.90;;;;;;5021839;28;20557;-85
2021/11/08 10:52:01;;;;;;;89.55;25.95;;;11.90;99.90;;;;;;5023384;28;20150;-85
2021/11/08 10:54:34;;;;;;;83.43;21.27;;;11.90;99.90;;;;;;5022164;28;20261;-85
2021/11/08 10:57:18;;;;;;;87.65;17.08;;;11.90;99.90;;;;;;5023938;28;20233;-85
2021/11/08 10:59:49;;;;;;;81.20;19.17;;;11.90;99.90;;;;;;5023712;28;20190;-86
2021/11/08 11:02:17;;;;;;;85.82;18.75;;;11.90;99.90;;;;;;5021857;28;20245;-85
2021/11/08 11:04:56;;;;;;;82.40;22.65;;;12.00;99.90;;;;;;5022690;28;20170;-85
2021/11/08 11:07:26;;;;;;;83.15;18.38;;;12.10;99.90;;;;;;5022730;28;20225;-85
2021/11/08 11:10:02;;;;;;;89.28;21.60;;;12.10;99.90;;;;;;5023033;28;20188;-85
2021/11/08 11:12:29;;;;;;;89.03;21.25;;;12.10;99.90;;;;;;5023762;28;20189;-85
2021/11/08 11:15:04;;;;;;;85.43;23.42;;;12.20;99.90;;;;;;5021364;28;20194;-85
2021/11/08 11:17:33;;;;;;;82.43;21.23;;;12.20;99.90;;;;;;5022800;28;20196;-85
2021/11/08 11:20:09;;;;;;;85.63;20.83;;;12.30;99.90;;;;;;5022964;28;20185;-86
2021/11/08 11:22:39;;;;;;;98.13;27.75;;;12.50;99.90;;;;;;5022389;28;20256;-86
2021/11/08 11:25:18;;;;;;;91.40;26.80;;;12.60;99.90;;;;;;5021701;28;20161;-86
2021/11/08 11:27:49;;;;;;;87.20;25.45;;;12.60;99.90;;;;;;5022675;28;20154;-86
2021/11/08 11:30:20;;;;;;;84.07;23.63;;;12.60;99.90;;;;;;5022396;28;20173;-86
2021/11/08 11:33:02;;;;;;;86.50;21.02;;;12.60;99.90;;;;;;5020895;28;20385;-86
2021/11/08 11:35:40;;;;;;;93.57;22.67;;;12.70;99.90;;;;;;5022264;28;20178;-86
2021/11/08 11:38:13;;;;;;;83.80;24.00;;;12.80;99.90;;;;;;5022785;28;20213;-86
2021/11/08 11:41:13;;;;;;;87.00;20.35;;;12.80;99.90;;;;;;5021067;28;20173;-86
2021/11/08 11:43:49;;;;;;;89.80;18.40;;;12.80;99.90;;;;;;5009219;28;20197;-86
2021/11/08 11:46:21;;;;;;;82.80;17.42;;;12.90;99.90;;;;;;5021477;28;20162;-86
2021/11/08 11:48:48;;;;;;;90.88;17.23;;;13.00;99.90;;;;;;5023286;28;20200;-86
2021/11/08 11:51:25;;;;;;;91.72;46.03;;;13.10;99.90;;;;;;5021958;28;20649;-86
2021/11/08 11:53:54;;;;;;;96.10;52.03;;;13.20;99.90;;;;;;5022115;28;20189;-86
2021/11/08 11:56:28;;;;;;;96.45;47.03;;;13.30;99.90;;;;;;5023086;28;20453;-86
2021/11/08 11:58:56;;;;;;;89.70;38.17;;;13.20;99.90;;;;;;5023952;28;20588;-86
2021/11/08 12:01:25;;;;;;;96.38;52.75;;;13.10;99.90;;;;;;5023134;28;20496;-86
2021/11/08 12:03:51;;;;;;;94.25;56.60;;;13.20;99.90;;;;;;5027325;28;20169;-86
2021/11/08 12:06:27;;;;;;;93.32;49.58;;;13.10;99.90;;;;;;5022963;28;20194;-86
2021/11/08 12:08:58;;;;;;;82.95;33.20;;;13.10;99.90;;;;;;5021137;28;20189;-86
2021/11/08 12:11:37;;;;;;;80.55;24.70;;;13.10;99.90;;;;;;5022600;28;20161;-86
2021/11/08 12:14:09;;;;;;;79.07;29.17;;;13.10;97.40;;;;;;5020892;28;20165;-86
2021/11/08 12:16:35;;;;;;;83.35;27.42;;;13.20;99.60;;;;;;5022029;28;20471;-86
2021/11/08 12:19:03;;;;;;;85.47;20.20;;;13.20;99.90;;;;;;5019520;28;20201;-86
2021/11/08 12:21:35;;;;;;;87.35;21.88;;;13.30;97.00;;;;;;5022600;28;20412;-86
2021/11/08 12:24:13;;;;;;;88.57;24.00;;;13.20;94.50;;;;;;5022295;28;20189;-86
2021/11/08 12:26:40;;;;;;;80.95;18.58;;;13.30;99.10;;;;;;5020508;28;20405;-86
2021/11/08 12:29:10;;;;;;;82.28;22.23;;;13.10;96.40;;;;;;5020333;28;20190;-86
2021/11/08 12:31:40;;;;;;;86.18;19.35;;;13.00;98.10;;;;;;5020872;28;20174;-86
2021/11/08 12:34:09;;;;;;;84.35;32.85;;;12.80;96.70;;;;;;5020158;28;20166;-86
2021/11/08 12:36:36;;;;;;;96.38;48.95;;;12.60;99.90;;;;;;5020950;28;20154;-86
2021/11/08 12:39:18;;;;;;;98.05;45.28;;;12.40;99.90;;;;;;5020006;28;20556;-86
2021/11/08 12:41:52;;;;;;;89.80;34.28;;;12.30;99.90;;;;;;5023101;28;20163;-86
2021/11/08 12:50:37;;;;;;;74.28;12.10;;;11.90;99.90;;;;;;5093329;23;20233;-87
2021/11/08 12:53:38;;;;;;;;;;;;;;;;;;;;;
2021/11/08 12:56:48;;;;;;;;;;;;;;;;;;;;;
2021/11/08 13:00:26;;;;;;;85.32;18.50;;;11.70;99.90;;;;;;5036673;28;20296;-87
2021/11/08 13:03:13;;;;;;;;;;;;;;;;;;;;;
2021/11/08 13:06:08;;;;;;;82.47;17.95;;;11.70;99.90;;;;;;4954083;29;20251;-86
2021/11/08 13:09:18;;;;;;;81.60;21.42;;;11.80;99.90;;;;;;4969010;28;20194;-87
2021/11/08 13:16:02;;;;;;;79.45;17.88;;;12.00;99.90;;;;;;4978624;28;20215;-87
2021/11/08 13:19:07;;;;;;;84.47;18.50;;;12.10;99.90;;;;;;4996346;28;20245;-86
2021/11/08 13:22:01;;;;;;;79.20;13.63;;;12.20;99.90;;;;;;5022305;28;20177;-87
2021/11/08 13:24:45;;;;;;;78.25;15.75;;;12.20;99.90;;;;;;5023060;28;20660;-86
2021/11/08 13:28:07;;;;;;;;;;;;;;;;;;;;;
2021/11/08 13:31:02;;;;;;;75.68;12.88;;;12.00;99.90;;;;;;5029846;28;20228;-86
2021/11/08 13:34:30;;;;;;;77.65;12.02;;;12.00;99.90;;;;;;5043579;28;20145;-86
2021/11/08 13:41:07;;;;;;;82.82;36.50;;;12.00;99.90;;;;;;4922254;29;20221;-86
2021/11/08 13:43:45;;;;;;;83.28;38.25;;;12.10;99.90;;;;;;4906135;29;20244;-87
2021/11/08 13:46:14;;;;;;;89.72;48.42;;;12.00;99.90;;;;;;4943354;28;20190;-87
2021/11/08 13:49:12;;;;;;;83.38;36.97;;;12.10;99.90;;;;;;5005094;28;20607;-87
2021/11/08 13:52:15;;;;;;;80.53;28.20;;;12.20;99.90;;;;;;5021788;28;20169;-87
2021/11/08 13:54:41;;;;;;;94.45;41.10;;;12.30;99.90;;;;;;5021531;28;20259;-86
2021/11/08 13:57:53;;;;;;;;;;;;;;;;;;;;;
2021/11/08 14:01:18;;;;;;;73.53;18.08;;;12.20;92.80;;;;;;5035197;28;20743;-86
2021/11/08 14:08:19;;;;;;;77.05;18.60;;;12.30;94.60;;;;;;4941948;28;20170;-86
2021/11/08 14:14:35;;;;;;;74.18;18.38;;;12.20;94.70;;;;;;4962954;29;20262;-86
2021/11/08 14:17:19;;;;;;;79.97;19.63;;;12.20;93.70;;;;;;5012787;28;20253;-87
2021/11/08 14:20:10;;;;;;;75.03;19.90;;;12.10;93.20;;;;;;5021176;28;20185;-86
2021/11/08 14:23:02;;;;;;;76.40;19.80;;;12.10;93.80;;;;;;5020054;28;20169;-87
2021/11/08 14:25:39;;;;;;;79.82;21.27;;;12.10;94.60;;;;;;5039242;28;20169;-87
2021/11/08 14:28:43;;;;;;;76.97;18.10;;;12.10;93.60;;;;;;5021695;28;20200;-87
2021/11/08 14:31:55;;;;;;;77.05;16.08;;;12.00;96.70;;;;;;5020938;28;20204;-86
2021/11/08 14:35:17;;;;;;;79.35;19.13;;;12.10;95.50;;;;;;5011576;28;20276;-87
2021/11/08 14:38:03;;;;;;;76.57;12.65;;;12.00;96.60;;;;;;4997933;28;20255;-86
2021/11/08 14:40:56;;;;;;;80.80;17.85;;;12.00;97.60;;;;;;5038204;28;20548;-86
2021/11/08 14:43:26;;;;;;;79.03;18.17;;;12.00;98.50;;;;;;5037368;28;20177;-86
2021/11/08 14:46:44;;;;;;;84.00;21.38;;;12.00;99.90;;;;;;5019308;28;20161;-86
2021/11/08 14:49:19;;;;;;;86.10;26.40;;;12.00;99.90;;;;;;5014871;28;20248;-86
2021/11/08 14:52:36;;;;;;;80.65;24.10;;;12.00;99.90;;;;;;5037178;28;20251;-86
2021/11/08 14:55:56;;;;;;;;;;;;;;;;;;;;;
2021/11/08 14:59:09;;;;;;;90.07;24.75;;;12.00;99.90;;;;;;5012733;28;20281;-86
2021/11/08 15:01:44;;;;;;;81.10;26.90;;;12.00;99.90;;;;;;4985687;28;20183;-87
2021/11/08 15:04:15;;;;;;;82.63;30.25;;;11.90;99.90;;;;;;5024429;28;20619;-87
2021/11/08 15:06:53;;;;;;;79.60;30.60;;;11.90;99.90;;;;;;5023427;28;20260;-85
2021/11/08 15:09:19;;;;;;;81.38;36.55;;;11.90;99.90;;;;;;5046732;28;20192;-86
2021/11/08 15:11:46;;;;;;;90.50;41.33;;;11.90;99.90;;;;;;5028469;28;20193;-88